Munith, MI (49259)

9:27 PM EST on February 01, 2015 (GMT -0500)
Munith Central | Change Station
CLOSE
Current Station
Personal Weather Station
Location: Munith, MI
Elevation: 942 ft
Nearby Weather Stations
Active Advisory: Winter Storm Warning

Elev 942 ft 42.39 °N, 84.25 °W | Updated 2 minutes ago

Snow
Snow
15.1 °F
Feels Like 6 °F
N
6.0
Wind Variable Wind from ENE
Gusts 12.0 mph

Today
High -- | Low -- °F
--% Chance of Precip.
Yesterday
High -- | Low -- °F
Precip. -- in
7:50 AM 5:50 PM
Waxing Gibbous, 97% visible
Pressure 29.73 in
Visibility 0.5 miles
Clouds
Windchill 6 °F
Dew Point 13 °F
Humidity 93%
Rainfall 0.00 in
Snow Depth Not available.
UV Not available.
Pollen .10 out of 12
Air Quality Not available.
Flu Activity Not available.
METAR KJXN 020156Z 03012G21KT 1/2SM SN FZFG VV016 M09/M11 A2969 RMK AO2 SLP068 P0006 T10891111

More Conditions Fewer Conditions

Pressure 29.73 in
Visibility 0.5 miles
Clouds
Windchill 6 °F
Dew Point 13 °F
Humidity 93%
Rainfall 0.00 in
Snow Depth Not available.
UV Not available.
Pollen .10 out of 12
Air Quality Not available.
Flu Activity Not available.
METAR KJXN 020156Z 03012G21KT 1/2SM SN FZFG VV016 M09/M11 A2969 RMK AO2 SLP068 P0006 T10891111

More Conditions Fewer Conditions

10-Day Weather Forecast

Almanac

Astronomy

Feb. 01, 2015 Rise Set
Actual Time
Civil Twilight
Nautical Twilight
Astronomical Twilight
Moon
Length of Visible Light
Length of Day
Tomorrow will be .
, % of the Moon is Illuminated

Today's Extremes

State Highs State Lows

Community

WunderPhotos

Upload Photos

1,792,655 photos uploaded!

WunderBlogs® & News

Nearby

Air Quality

  Air Quality AQ Index Pollutant
Not available.

Snow Depth

Station Depth Elevation

Earthquake Activity

City Distance Mag. Time & Date
Minimum magnitude displayed is 2.5.

Coastal Water Temperatures

Place Temperature

Nearby Weather Stations